createdAt,value
2023-12-14T00:01:19.614Z,99483.31
2023-12-14T00:03:47.213Z,99490.88
2023-12-14T00:06:14.099Z,99490.13
2023-12-14T00:08:42.515Z,99499.28
2023-12-14T00:11:10.993Z,99493.28
2023-12-14T00:13:40.458Z,99499.69
2023-12-14T00:16:07.181Z,99492.91
2023-12-14T00:18:33.743Z,99506.72
2023-12-14T00:21:02.261Z,99498.47
2023-12-14T00:23:30.650Z,99504.03
2023-12-14T00:25:57.201Z,99506.38
2023-12-14T00:28:28.447Z,99510.03
2023-12-14T00:30:57.556Z,99513.16
2023-12-14T00:33:26.182Z,99507.25
2023-12-14T00:35:55.552Z,99518.38
2023-12-14T00:38:22.054Z,99520.63
2023-12-14T00:40:50.562Z,99521.44
2023-12-14T00:43:17.110Z,99525.34
2023-12-14T00:45:46.382Z,99525.41
2023-12-14T00:48:14.876Z,99528.19
2023-12-14T00:50:41.438Z,99532.97
2023-12-14T00:53:08.073Z,99528.63
2023-12-14T00:55:34.608Z,99540.16
2023-12-14T00:58:04.625Z,99533.75
2023-12-14T01:00:31.136Z,99540.53
2023-12-14T01:02:57.747Z,99531.47
2023-12-14T01:05:26.205Z,99541.38
2023-12-14T01:07:52.803Z,99538.19
2023-12-14T01:10:19.353Z,99536.16
2023-12-14T01:12:45.849Z,99534.59
2023-12-14T01:15:12.359Z,99537.75
2023-12-14T01:17:39.144Z,99539.72
2023-12-14T01:20:05.884Z,99544.16
2023-12-14T01:22:32.818Z,99545.72
2023-12-14T01:24:59.377Z,99547.28
2023-12-14T01:27:28.618Z,99537.44
2023-12-14T01:29:55.143Z,99536.16
2023-12-14T01:32:24.389Z,99533.41
2023-12-14T01:34:50.941Z,99532.13
2023-12-14T01:37:17.512Z,99531.38
2023-12-14T01:39:44.021Z,99532.50
2023-12-14T01:42:10.550Z,99527.78
2023-12-14T01:44:37.100Z,99535.97
2023-12-14T01:47:03.648Z,99530.13
2023-12-14T01:49:31.032Z,99533.69
2023-12-14T01:51:57.569Z,99530.06
2023-12-14T01:54:24.095Z,99523.78
2023-12-14T01:56:53.341Z,99530.53
2023-12-14T01:59:21.657Z,99522.22
2023-12-14T02:01:50.957Z,99527.34
2023-12-14T02:04:19.335Z,99522.63
2023-12-14T02:06:45.850Z,99523.84
2023-12-14T02:09:14.208Z,99525.41
2023-12-14T02:11:42.661Z,99524.16
2023-12-14T02:14:09.247Z,99520.59
2023-12-14T02:16:35.825Z,99526.63
2023-12-14T02:19:05.145Z,99519.06
2023-12-14T02:21:32.460Z,99530.13
2023-12-14T02:23:58.977Z,99518.22
2023-12-14T02:26:27.315Z,99516.72
2023-12-14T02:28:55.677Z,99522.22
2023-12-14T02:31:22.151Z,99520.63
2023-12-14T02:33:49.460Z,99515.03
2023-12-14T02:36:16.761Z,99515.06
2023-12-14T02:38:43.266Z,99514.66
2023-12-14T02:41:10.733Z,99516.66
2023-12-14T02:43:37.273Z,99519.78
2023-12-14T02:46:04.026Z,99516.22
2023-12-14T02:48:30.852Z,99525.75
2023-12-14T02:50:58.292Z,99523.41
2023-12-14T02:53:24.753Z,99517.84
2023-12-14T02:55:51.600Z,99515.88
2023-12-14T02:58:18.096Z,99522.22
2023-12-14T03:00:44.621Z,99528.53
2023-12-14T03:03:13.963Z,99522.56
2023-12-14T03:05:41.451Z,99525.41
2023-12-14T03:08:10.781Z,99530.13
2023-12-14T03:10:37.355Z,99538.47
2023-12-14T03:13:03.795Z,99537.63
2023-12-14T03:15:30.290Z,99540.47
2023-12-14T03:17:56.861Z,99539.66
2023-12-14T03:20:23.396Z,99548.38
2023-12-14T03:22:49.912Z,99550.78
2023-12-14T03:25:16.455Z,99549.66
2023-12-14T03:27:43.744Z,99557.16
2023-12-14T03:30:10.256Z,99558.75
2023-12-14T03:32:37.811Z,99562.38
2023-12-14T03:35:07.322Z,99558.41
2023-12-14T03:37:36.638Z,99562.69
2023-12-14T03:40:03.143Z,99569.47
2023-12-14T03:42:29.652Z,99565.09
2023-12-14T03:44:56.147Z,99560.28
2023-12-14T03:47:23.482Z,99570.97
2023-12-14T03:49:50.077Z,99572.19
2023-12-14T03:52:16.622Z,99565.47
2023-12-14T03:54:43.930Z,99576.59
2023-12-14T03:57:10.441Z,99577.38
2023-12-14T03:59:37.720Z,99569.81
2023-12-14T04:02:04.287Z,99571.47
2023-12-14T04:04:30.756Z,99575.38
2023-12-14T04:06:57.272Z,99574.25
2023-12-14T04:09:24.644Z,99577.72
2023-12-14T04:11:51.175Z,99575.44
2023-12-14T04:14:17.663Z,99584.88
2023-12-14T04:16:44.177Z,99588.13
2023-12-14T04:19:13.503Z,99576.97
2023-12-14T04:21:39.925Z,99593.69
2023-12-14T04:24:06.407Z,99590.09
2023-12-14T04:26:33.734Z,99593.22
2023-12-14T04:29:00.284Z,99604.41
2023-12-14T04:31:27.644Z,99597.19
2023-12-14T04:33:54.150Z,99603.53
2023-12-14T04:36:20.605Z,99595.19
2023-12-14T04:38:47.902Z,99594.88
2023-12-14T04:41:15.265Z,99602.03
2023-12-14T04:43:41.795Z,99601.22
2023-12-14T04:46:08.276Z,99612.25
2023-12-14T04:48:34.775Z,99607.94
2023-12-14T04:51:01.346Z,99618.66
2023-12-14T04:53:27.892Z,99625.41
2023-12-14T04:55:56.374Z,99627.00
2023-12-14T04:58:22.814Z,99621.06
2023-12-14T05:00:49.321Z,99624.22
2023-12-14T05:03:17.969Z,99629.78
2023-12-14T05:05:46.361Z,99635.75
2023-12-14T05:08:12.939Z,99637.31
2023-12-14T05:10:39.512Z,99635.69
2023-12-14T05:13:07.916Z,99639.25
2023-12-14T05:15:34.319Z,99647.69
2023-12-14T05:18:00.868Z,99650.00
2023-12-14T05:20:30.178Z,99654.00
2023-12-14T05:22:59.448Z,99659.50
2023-12-14T05:25:25.943Z,99667.03
2023-12-14T05:27:53.250Z,99670.69
2023-12-14T05:30:19.711Z,99678.56
2023-12-14T05:32:46.252Z,99678.16
2023-12-14T05:35:12.874Z,99677.69
2023-12-14T05:37:39.393Z,99682.88
2023-12-14T05:40:08.639Z,99686.44
2023-12-14T05:42:35.362Z,99691.56
2023-12-14T05:45:02.880Z,99692.38
2023-12-14T05:47:29.381Z,99692.75
2023-12-14T05:49:56.772Z,99698.25
2023-12-14T05:52:23.203Z,99702.63
2023-12-14T05:54:49.656Z,99705.75
2023-12-14T05:57:16.098Z,99709.59
2023-12-14T05:59:43.586Z,99715.22
2023-12-14T06:02:10.296Z,99719.59
2023-12-14T06:04:37.085Z,99726.66
2023-12-14T06:07:03.642Z,99729.84
2023-12-14T06:09:30.184Z,99736.63
2023-12-14T06:11:57.640Z,99737.00
2023-12-14T06:14:25.106Z,99741.38
2023-12-14T06:16:52.681Z,99742.91
2023-12-14T06:19:20.238Z,99740.13
2023-12-14T06:21:47.705Z,99745.69
2023-12-14T06:24:15.122Z,99753.25
2023-12-14T06:26:42.506Z,99751.19
2023-12-14T06:29:09.909Z,99753.22
2023-12-14T06:31:36.474Z,99766.34
2023-12-14T06:34:03.114Z,99761.19
2023-12-14T06:36:31.583Z,99764.75
2023-12-14T06:38:58.982Z,99766.75
2023-12-14T06:41:25.524Z,99766.34
2023-12-14T06:43:53.040Z,99767.53
2023-12-14T06:46:19.638Z,99773.50
2023-12-14T06:48:47.173Z,99773.56
2023-12-14T06:51:13.848Z,99774.34
2023-12-14T06:53:41.292Z,99775.94
2023-12-14T06:56:08.799Z,99780.34
2023-12-14T06:58:35.387Z,99784.63
2023-12-14T07:01:02.863Z,99785.03
2023-12-14T07:03:30.745Z,99789.00
2023-12-14T07:05:57.462Z,99794.97
2023-12-14T07:08:24.980Z,99795.75
2023-12-14T07:10:53.909Z,99800.53
2023-12-14T07:13:20.363Z,99798.59
2023-12-14T07:15:47.737Z,99800.94
2023-12-14T07:18:15.262Z,99800.25
2023-12-14T07:20:42.768Z,99810.84
2023-12-14T07:23:09.430Z,99811.34
2023-12-14T07:25:35.996Z,99809.81
2023-12-14T07:28:03.535Z,99807.50
2023-12-14T07:30:31.088Z,99810.38
2023-12-14T07:32:57.708Z,99816.69
2023-12-14T07:35:25.283Z,99822.66
2023-12-14T07:37:52.854Z,99825.50
2023-12-14T07:40:20.596Z,99816.34
2023-12-14T07:42:48.364Z,99828.69
2023-12-14T07:45:16.055Z,99827.06
2023-12-14T07:47:42.921Z,99822.38
2023-12-14T07:50:09.863Z,99832.69
2023-12-14T07:52:37.917Z,99827.94
2023-12-14T07:55:05.866Z,99824.81
2023-12-14T07:57:33.429Z,99836.69
2023-12-14T08:00:01.080Z,99839.09
2023-12-14T08:02:28.870Z,99841.06
2023-12-14T08:04:56.717Z,99855.31
2023-12-14T08:07:24.508Z,99855.31
2023-12-14T08:09:51.318Z,99860.13
2023-12-14T08:12:19.026Z,99866.03
2023-12-14T08:14:46.684Z,99870.03
2023-12-14T08:17:13.382Z,99867.50
2023-12-14T08:19:40.117Z,99866.59
2023-12-14T08:22:07.759Z,99860.41
2023-12-14T08:24:36.411Z,99867.34
2023-12-14T08:27:04.098Z,99867.28
2023-12-14T08:29:31.775Z,99874.75
2023-12-14T08:31:59.317Z,99881.44
2023-12-14T08:34:27.228Z,99882.16
2023-12-14T08:36:55.046Z,99892.09
2023-12-14T08:39:22.734Z,99894.78
2023-12-14T08:41:49.603Z,99895.22
2023-12-14T08:44:17.432Z,99896.31
2023-12-14T08:46:44.381Z,99901.06
2023-12-14T08:49:12.213Z,99905.00
2023-12-14T08:51:39.219Z,99910.19
2023-12-14T08:54:06.060Z,99914.53
2023-12-14T08:56:33.712Z,99913.00
2023-12-14T08:59:01.315Z,99922.13
2023-12-14T09:01:29.205Z,99919.28
2023-12-14T09:03:57.209Z,99918.06
2023-12-14T09:06:25.138Z,99928.78
2023-12-14T09:08:53.417Z,99935.09
2023-12-14T09:11:20.312Z,99925.59
2023-12-14T09:13:48.197Z,99929.91
2023-12-14T09:16:15.948Z,99931.97
2023-12-14T09:18:43.114Z,99935.47
2023-12-14T09:21:10.025Z,99935.09
2023-12-14T09:23:37.060Z,99942.22
2023-12-14T09:26:05.721Z,99939.03
2023-12-14T09:28:32.760Z,99939.81
2023-12-14T09:31:03.610Z,99948.16
2023-12-14T09:33:35.738Z,99947.69
2023-12-14T09:36:02.571Z,99953.69
2023-12-14T09:38:34.357Z,99953.66
2023-12-14T09:41:02.084Z,99958.03
2023-12-14T09:43:29.829Z,99950.88
2023-12-14T09:45:57.472Z,99958.81
2023-12-14T09:48:24.347Z,99955.31
2023-12-14T09:50:51.161Z,99957.72
2023-12-14T09:53:20.050Z,99959.72
2023-12-14T09:55:46.885Z,99958.53
2023-12-14T09:58:14.787Z,99950.47
2023-12-14T10:00:42.656Z,99953.97
2023-12-14T10:03:09.436Z,99954.34
2023-12-14T10:05:36.227Z,99954.72
2023-12-14T10:08:03.172Z,99959.88
2023-12-14T10:10:30.900Z,99952.31
2023-12-14T10:12:57.643Z,99961.03
2023-12-14T10:15:24.388Z,99953.88
2023-12-14T10:17:52.271Z,99957.03
2023-12-14T10:20:19.137Z,99951.88
2023-12-14T10:22:46.925Z,99957.50
2023-12-14T10:25:13.739Z,99964.78
2023-12-14T10:27:41.407Z,99968.00
2023-12-14T10:30:08.110Z,99963.28
2023-12-14T10:32:35.924Z,99961.69
2023-12-14T10:35:02.944Z,99968.84
2023-12-14T10:37:30.626Z,99971.63
2023-12-14T10:39:57.312Z,99975.97
2023-12-14T10:42:24.906Z,99976.41
2023-12-14T10:45:08.627Z,99971.66
2023-12-14T10:47:39.705Z,99974.44
2023-12-14T10:50:06.697Z,99983.94
2023-12-14T10:52:33.451Z,99989.13
2023-12-14T10:55:01.065Z,99987.50
2023-12-14T10:57:28.612Z,99999.03
2023-12-14T10:59:55.477Z,100003.84
2023-12-14T11:02:23.096Z,99999.91
2023-12-14T11:04:50.838Z,99999.53
2023-12-14T11:07:17.622Z,100007.88
2023-12-14T11:09:45.238Z,100004.28
2023-12-14T11:12:11.917Z,100014.63
2023-12-14T11:14:39.503Z,100019.03
2023-12-14T11:17:07.259Z,100019.03
2023-12-14T11:19:34.950Z,100024.16
2023-12-14T11:22:01.684Z,100030.91
2023-12-14T11:24:28.420Z,100030.91
2023-12-14T11:26:55.236Z,100032.50
2023-12-14T11:29:22.842Z,100035.69
2023-12-14T11:31:49.777Z,100036.88
2023-12-14T11:34:17.424Z,100029.34
2023-12-14T11:36:46.058Z,100034.09
2023-12-14T11:39:13.696Z,100036.47
2023-12-14T11:41:40.431Z,100045.22
2023-12-14T11:44:07.266Z,100046.00
2023-12-14T11:46:34.889Z,100065.06
2023-12-14T11:49:02.520Z,100050.78
2023-12-14T11:51:30.201Z,100047.59
2023-12-14T11:53:56.914Z,100048.00
2023-12-14T11:56:24.591Z,100054.34
2023-12-14T11:58:51.289Z,100059.91
2023-12-14T12:01:19.169Z,100063.09
2023-12-14T12:03:46.922Z,100060.72
2023-12-14T12:06:13.770Z,100068.66
2023-12-14T12:08:41.376Z,100064.31
2023-12-14T12:11:08.077Z,100068.66
2023-12-14T12:13:35.773Z,100061.13
2023-12-14T12:16:03.421Z,100065.09
2023-12-14T12:18:31.175Z,100069.88
2023-12-14T12:20:57.964Z,100073.44
2023-12-14T12:23:24.884Z,100073.03
2023-12-14T12:25:52.495Z,100076.56
2023-12-14T12:28:19.288Z,100080.94
2023-12-14T12:30:46.844Z,100086.50
2023-12-14T12:33:17.276Z,100087.31
2023-12-14T12:35:44.002Z,100088.09
2023-12-14T12:38:11.674Z,100085.31
2023-12-14T12:40:39.437Z,100088.53
2023-12-14T12:43:06.268Z,100098.44
2023-12-14T12:45:33.944Z,100096.44
2023-12-14T12:48:01.557Z,100097.66
2023-12-14T12:50:29.398Z,100100.03
2023-12-14T12:52:57.063Z,100102.81
2023-12-14T12:55:24.680Z,100106.00
2023-12-14T12:57:52.294Z,100115.09
2023-12-14T13:00:20.890Z,100106.94
2023-12-14T13:02:48.421Z,100116.03
2023-12-14T13:05:17.604Z,100110.47
2023-12-14T13:07:45.526Z,100108.91
2023-12-14T13:10:21.345Z,100112.44
2023-12-14T13:12:55.750Z,100118.38
2023-12-14T13:15:22.819Z,100124.38
2023-12-14T13:17:50.412Z,100128.72
2023-12-14T13:20:18.228Z,100128.75
2023-12-14T13:22:45.045Z,100124.75
2023-12-14T13:25:11.820Z,100135.88
2023-12-14T13:27:39.731Z,100129.88
2023-12-14T13:30:07.625Z,100138.66
2023-12-14T13:32:34.482Z,100133.09
2023-12-14T13:35:01.434Z,100141.41
2023-12-14T13:37:28.282Z,100147.00
2023-12-14T13:39:56.042Z,100155.31
2023-12-14T13:42:23.750Z,100152.53
2023-12-14T13:44:50.611Z,100160.88
2023-12-14T13:47:17.388Z,100167.59
2023-12-14T13:49:45.337Z,100160.47
2023-12-14T13:52:12.148Z,100165.25
2023-12-14T13:54:39.297Z,100170.31
2023-12-14T13:57:06.148Z,100171.94
2023-12-14T13:59:33.018Z,100175.81
2023-12-14T14:02:00.864Z,100170.25
2023-12-14T14:04:28.637Z,100176.13
2023-12-14T14:06:55.488Z,100179.34
2023-12-14T14:09:23.130Z,100178.84
2023-12-14T14:11:52.452Z,100183.38
2023-12-14T14:14:21.413Z,100190.06
2023-12-14T14:16:49.176Z,100194.53
2023-12-14T14:19:18.473Z,100196.44
2023-12-14T14:21:47.989Z,100196.91
2023-12-14T14:24:17.556Z,100194.88
2023-12-14T14:26:46.277Z,100204.00
2023-12-14T14:29:13.114Z,100204.41
2023-12-14T14:31:39.997Z,100205.22
2023-12-14T14:34:08.460Z,100207.63
2023-12-14T14:36:35.350Z,100209.19
2023-12-14T14:39:03.075Z,100217.09
2023-12-14T14:41:30.917Z,100215.91
2023-12-14T14:43:57.834Z,100218.38
2023-12-14T14:46:25.571Z,100227.97
2023-12-14T14:48:52.511Z,100224.78
2023-12-14T14:51:20.278Z,100235.91
2023-12-14T14:53:47.109Z,100242.69
2023-12-14T14:56:13.690Z,100243.91
2023-12-14T14:58:41.556Z,100244.72
2023-12-14T15:01:08.328Z,100243.13
2023-12-14T15:03:36.165Z,100247.50
2023-12-14T15:06:04.017Z,100243.13
2023-12-14T15:08:30.831Z,100245.56
2023-12-14T15:10:57.677Z,100254.31
2023-12-14T15:13:25.335Z,100252.69
2023-12-14T15:15:52.183Z,100262.63
2023-12-14T15:18:19.932Z,100263.00
2023-12-14T15:20:47.647Z,100272.13
2023-12-14T15:23:14.566Z,100273.34
2023-12-14T15:25:42.319Z,100276.13
2023-12-14T15:28:10.091Z,100282.09
2023-12-14T15:30:37.758Z,100278.13
2023-12-14T15:33:06.484Z,100286.00
2023-12-14T15:35:35.565Z,100282.91
2023-12-14T15:38:02.399Z,100291.22
2023-12-14T15:40:31.660Z,100295.63
2023-12-14T15:42:59.363Z,100297.66
2023-12-14T15:45:27.008Z,100296.09
2023-12-14T15:47:53.848Z,100312.34
2023-12-14T15:50:20.678Z,100309.56
2023-12-14T15:52:49.429Z,100307.22
2023-12-14T15:55:17.063Z,100317.50
2023-12-14T15:57:44.679Z,100328.63
2023-12-14T16:00:12.399Z,100322.28
2023-12-14T16:02:40.259Z,100324.28
2023-12-14T16:05:08.089Z,100338.19
2023-12-14T16:07:34.951Z,100330.63
2023-12-14T16:10:03.602Z,100342.94
2023-12-14T16:12:30.471Z,100344.94
2023-12-14T16:14:57.244Z,100347.34
2023-12-14T16:17:24.948Z,100359.22
2023-12-14T16:19:51.725Z,100359.63
2023-12-14T16:22:19.360Z,100357.66
2023-12-14T16:24:45.904Z,100361.22
2023-12-14T16:27:12.450Z,100362.41
2023-12-14T16:29:39.004Z,100364.78
2023-12-14T16:32:06.407Z,100358.06
2023-12-14T16:34:33.926Z,100369.97
2023-12-14T16:37:02.684Z,100362.41
2023-12-14T16:39:29.879Z,100366.41
2023-12-14T16:41:56.391Z,100382.69
2023-12-14T16:44:24.828Z,100384.66
2023-12-14T16:46:52.238Z,100384.25
2023-12-14T16:49:20.672Z,100382.28
2023-12-14T16:51:47.236Z,100382.69
2023-12-14T16:54:14.617Z,100384.25
2023-12-14T16:56:41.939Z,100389.44
2023-12-14T16:59:12.975Z,100396.59
2023-12-14T17:01:41.143Z,100397.00
2023-12-14T17:04:07.643Z,100396.19
2023-12-14T17:06:34.986Z,100402.94
2023-12-14T17:09:02.341Z,100397.75
2023-12-14T17:11:28.862Z,100403.72
2023-12-14T17:13:57.285Z,100402.94
2023-12-14T17:16:24.661Z,100408.50
2023-12-14T17:18:52.090Z,100408.50
2023-12-14T17:21:19.428Z,100409.28
2023-12-14T17:23:48.655Z,100409.69
2023-12-14T17:26:16.029Z,100412.44
2023-12-14T17:28:42.645Z,100412.06
2023-12-14T17:31:10.156Z,100417.63
2023-12-14T17:33:38.692Z,100420.03
2023-12-14T17:36:06.491Z,100428.38
2023-12-14T17:38:34.881Z,100428.75
2023-12-14T17:41:01.473Z,100438.69
2023-12-14T17:43:28.082Z,100449.00
2023-12-14T17:45:55.376Z,100450.59
2023-12-14T17:48:21.994Z,100458.53
2023-12-14T17:50:48.570Z,100452.59
2023-12-14T17:53:15.142Z,100460.94
2023-12-14T17:55:44.593Z,100470.06
2023-12-14T17:58:11.965Z,100469.69
2023-12-14T18:00:38.510Z,100468.44
2023-12-14T18:03:05.134Z,100470.44
2023-12-14T18:05:33.749Z,100476.41
2023-12-14T18:08:00.351Z,100472.47
2023-12-14T18:10:28.741Z,100477.22
2023-12-14T18:12:55.288Z,100476.81
2023-12-14T18:15:23.657Z,100485.16
2023-12-14T18:17:53.792Z,100489.13
2023-12-14T18:20:20.462Z,100484.75
2023-12-14T18:22:49.814Z,100495.88
2023-12-14T18:25:17.139Z,100497.88
2023-12-14T18:27:46.418Z,100505.81
2023-12-14T18:30:14.837Z,100508.19
2023-12-14T18:32:43.209Z,100510.59
2023-12-14T18:35:11.634Z,100516.91
2023-12-14T18:37:40.190Z,100520.09
2023-12-14T18:40:06.718Z,100521.63
2023-12-14T18:42:33.221Z,100524.75
2023-12-14T18:45:02.002Z,100531.94
2023-12-14T18:47:28.534Z,100524.78
2023-12-14T18:49:56.955Z,100529.13
2023-12-14T18:52:23.436Z,100535.88
2023-12-14T18:54:50.001Z,100542.66
2023-12-14T18:57:16.488Z,100541.06
2023-12-14T18:59:43.042Z,100547.81
2023-12-14T19:02:09.561Z,100548.63
2023-12-14T19:04:39.584Z,100558.13
2023-12-14T19:07:06.088Z,100554.19
2023-12-14T19:09:33.498Z,100562.53
2023-12-14T19:12:00.065Z,100566.47
2023-12-14T19:14:27.574Z,100572.47
2023-12-14T19:16:54.886Z,100570.88
2023-12-14T19:19:27.869Z,100574.81
2023-12-14T19:21:56.127Z,100578.03
2023-12-14T19:24:22.661Z,100581.19
2023-12-14T19:26:49.236Z,100586.75
2023-12-14T19:29:15.846Z,100587.94
2023-12-14T19:31:42.388Z,100598.66
2023-12-14T19:34:11.743Z,100603.06
2023-12-14T19:36:38.307Z,100605.41
2023-12-14T19:39:04.897Z,100607.41
2023-12-14T19:41:32.672Z,100611.78
2023-12-14T19:43:59.280Z,100607.78
2023-12-14T19:46:25.838Z,100620.53
2023-12-14T19:48:53.392Z,100622.94
2023-12-14T19:51:20.881Z,100625.69
2023-12-14T19:53:47.462Z,100630.88
2023-12-14T19:56:14.106Z,100634.44
2023-12-14T19:58:41.651Z,100624.91
2023-12-14T20:01:08.264Z,100638.00
2023-12-14T20:03:34.820Z,100635.59
2023-12-14T20:06:01.453Z,100638.78
2023-12-14T20:08:29.004Z,100651.13
2023-12-14T20:10:56.485Z,100649.94
2023-12-14T20:13:23.941Z,100651.13
2023-12-14T20:15:50.467Z,100654.69
2023-12-14T20:18:17.974Z,100657.50
2023-12-14T20:20:44.641Z,100669.81
2023-12-14T20:23:11.241Z,100660.28
2023-12-14T20:25:38.733Z,100664.63
2023-12-14T20:28:06.242Z,100665.03
2023-12-14T20:30:33.800Z,100671.00
2023-12-14T20:33:00.476Z,100679.75
2023-12-14T20:35:28.042Z,100679.34
2023-12-14T20:37:55.564Z,100684.50
2023-12-14T20:40:22.941Z,100691.66
2023-12-14T20:42:51.302Z,100694.84
2023-12-14T20:45:21.393Z,100693.22
2023-12-14T20:47:47.924Z,100704.34
2023-12-14T20:50:14.507Z,100698.00
2023-12-14T20:52:41.240Z,100701.97
2023-12-14T20:55:07.821Z,100706.75
2023-12-14T20:57:38.166Z,100719.47
2023-12-14T21:00:04.810Z,100719.84
2023-12-14T21:02:31.374Z,100731.34
2023-12-14T21:04:58.733Z,100732.53
2023-12-14T21:07:25.227Z,100735.31
2023-12-14T21:09:53.559Z,100736.53
2023-12-14T21:12:19.960Z,100743.28
2023-12-14T21:14:46.368Z,100738.94
2023-12-14T21:17:15.841Z,100744.88
2023-12-14T21:19:42.377Z,100742.50
2023-12-14T21:22:08.966Z,100748.88
2023-12-14T21:24:36.440Z,100754.78
2023-12-14T21:27:03.011Z,100760.78
2023-12-14T21:29:36.576Z,100761.16
2023-12-14T21:32:04.092Z,100777.84
2023-12-14T21:34:30.648Z,100776.25
2023-12-14T21:36:58.088Z,100777.84
2023-12-14T21:39:25.540Z,100781.41
2023-12-14T21:41:53.075Z,100784.59
2023-12-14T21:44:19.712Z,100787.75
2023-12-14T21:46:47.222Z,100794.53
2023-12-14T21:49:18.580Z,100801.66
2023-12-14T21:51:46.586Z,100800.47
2023-12-14T21:54:13.908Z,100802.41
2023-12-14T21:56:42.300Z,100807.19
2023-12-14T21:59:08.843Z,100821.91
2023-12-14T22:01:36.235Z,100823.09
2023-12-14T22:04:04.916Z,100832.59
2023-12-14T22:06:31.519Z,100831.00
2023-12-14T22:08:58.129Z,100834.19
2023-12-14T22:11:27.407Z,100838.97
2023-12-14T22:13:54.822Z,100843.72
2023-12-14T22:16:21.516Z,100853.25
2023-12-14T22:18:48.956Z,100844.03
2023-12-14T22:21:15.517Z,100856.75
2023-12-14T22:23:42.804Z,100853.63
2023-12-14T22:26:09.303Z,100859.13
2023-12-14T22:28:35.794Z,100876.19
2023-12-14T22:31:02.320Z,100873.03
2023-12-14T22:33:28.854Z,100881.03
2023-12-14T22:35:55.276Z,100874.66
2023-12-14T22:38:21.842Z,100887.31
2023-12-14T22:40:48.261Z,100885.78
2023-12-14T22:43:15.544Z,100892.06
2023-12-14T22:45:41.967Z,100890.94
2023-12-14T22:48:08.389Z,100899.22
2023-12-14T22:50:34.855Z,100902.00
2023-12-14T22:53:02.024Z,100909.22
2023-12-14T22:55:29.282Z,100909.94
2023-12-14T22:57:55.697Z,100902.38
2023-12-14T23:00:22.130Z,100918.63
2023-12-14T23:02:48.593Z,100914.28
2023-12-14T23:05:15.928Z,100913.09
2023-12-14T23:07:45.120Z,100921.81
2023-12-14T23:10:11.585Z,100918.69
2023-12-14T23:12:38.020Z,100917.88
2023-12-14T23:15:04.468Z,100924.22
2023-12-14T23:17:30.941Z,100919.47
2023-12-14T23:19:57.511Z,100934.25
2023-12-14T23:22:23.990Z,100935.34
2023-12-14T23:24:50.498Z,100939.28
2023-12-14T23:27:16.898Z,100935.72
2023-12-14T23:29:43.290Z,100946.84
2023-12-14T23:32:09.770Z,100948.84
2023-12-14T23:34:36.268Z,100952.41
2023-12-14T23:37:02.664Z,100953.63
2023-12-14T23:39:29.054Z,100951.22
2023-12-14T23:41:55.544Z,100954.78
2023-12-14T23:44:22.105Z,100955.16
2023-12-14T23:46:48.622Z,100963.88
2023-12-14T23:49:15.135Z,100972.22
2023-12-14T23:51:41.537Z,100967.03
2023-12-14T23:54:07.940Z,100982.16
2023-12-14T23:56:37.119Z,100984.19
2023-12-14T23:59:03.610Z,100991.28
